Details From UTDK - Kulyab
To UTTT - Yuzhny
Flight Number -
Tags Generated
Created
Modified
Stats Distance 198 nm / 367 km
Max Altitude 0 ft / 0 m
Waypoints 2
Social Downloads 9
Likes 0
Share VATSIM

Download

Looking for another format? Having issues loading an existing format? Contact us
Advertisement - Login to hide

Notes

Generated

Route

UTDK UTTT

ID Type Via Altitude Latitude Longitude Leg Dist Tot Dist Heading (true) Name
O UTDK APT - 0 ft / 0 m 37.97500˚ 69.80167˚ - 0 nm - -
O UTTT APT - 0 ft / 0 m 41.25059˚ 69.25911˚ 198 nm 198 nm 353° / 353° -

Altitude Profile

Advertisement - Login to hide

Weather


0- 5 10 15 20 25 30 35+ Temperature / ° C

Clouds and Precipitation
Forecast for 2017-12-16 00:00 UTC. Updated an hour ago

Ground ~20,000 ft ~40,000 ft Winds

UTDK

Details ICAO UTDK (TJU)
Name KULYAB
Region Tajikistan, Turkmenistan and Uzbekistan
Timezone Asia/Dushanbe (UTC+5.0)
Stats Elevation 2,293 ft / 699 m (AMSL)
Location 37.988334° 69.806667°
Runways 1
Magnetic Variation 4.171° E

METAR

UTDK 160000Z 07002MPS 9000 FEW120 M01/M02 Q1026 R01/09//70 RMK QFE711/0949

Decode

TAF

Not found

Departure Runways

ID Width Length Bearing (true) Bearing (mag) Surface Threshold Offset Overrun Length
01 137 ft / 42 m 10,147 ft / 3,093 m 16.46° 12.29° Asphalt 0 ft / 0 m 0 ft / 0 m
19 137 ft / 42 m 10,147 ft / 3,093 m 196.47° 192.30° Asphalt 0 ft / 0 m 0 ft / 0 m

UTTT

Details ICAO UTTT (TAS)
Name Yuzhny
Region Tajikistan, Turkmenistan and Uzbekistan
Timezone Asia/Tashkent (UTC+5.0)
Stats Elevation 1,417 ft / 432 m (AMSL)
Location 41.255517° 69.281646°
Runways 2
Magnetic Variation 5.402° E

METAR

UTTT 160000Z VRB02KT 0050 R08L/0250N FZFG VV001 M04/M04 Q1028 R08L/CLRD70 NOSIG RMK BASE100

Decode

TAF

TAF UTTT 152300Z 1600/1624 VRB02KT 3000 BR BKN006 BKN100 TEMPO 1600/1604 0200 FZFG VV001 BECMG 1604/1606 1500 BR BKN005

Decode

Destination Runways

ID Width Length Bearing (true) Bearing (mag) Surface Threshold Offset Overrun Length
08L 197 ft / 60 m 13,135 ft / 4,004 m 76.98° 71.58° Concrete 820 ft / 250 m 0 ft / 0 m
08R 148 ft / 45 m 12,824 ft / 3,909 m 76.99° 71.59° Asphalt 650 ft / 198 m 0 ft / 0 m
26L 148 ft / 45 m 12,824 ft / 3,909 m 257.02° 251.62° Asphalt 680 ft / 207 m 0 ft / 0 m
26R 197 ft / 60 m 13,135 ft / 4,004 m 257.02° 251.62° Concrete 820 ft / 250 m 0 ft / 0 m

Approach Navaids

Runway Type Ident Frequency Range Bearing (true) Bearing (mag) Slope Elevation
08L Localiser ING 110.50 MHz 18 nm / 33 km 77.04° 71.64° - 1,417 ft / 432 m (AMSL)
08L Glidescope ING 110.50 MHz 10 nm / 19 km 77.00° 71.60° 2.40° 1,417 ft / 432 m (AMSL)
08R Localiser IZW 111.70 MHz 18 nm / 33 km 76.74° 71.34° - 1,417 ft / 432 m (AMSL)
08R Glidescope IZW 111.70 MHz 10 nm / 19 km 77.00° 71.60° 2.40° 1,417 ft / 432 m (AMSL)
26R Localiser IFD 108.50 MHz 18 nm / 33 km 262.04° 256.64° - 1,417 ft / 432 m (AMSL)
26R Glidescope IFD 108.50 MHz 10 nm / 19 km 257.00° 251.60° 2.40° 1,417 ft / 432 m (AMSL)